Terminal Aerodrome Forecast
Issued by NWS Omaha/Valley, NE

Home | Current Version | Previous Version | Text Only | Print | Product List | Glossary On
Versions: 1 2 3 4 5 6 7 8 9 10 11 12 13 14 15 16 17 18
000
FTUS43 KOAX 211611 AAC
TAFOMA
TAF AMD
KOMA 211611Z 2116/2212 17014G24KT P6SM OVC025
     FM211900 22013KT P6SM -SHRA VCTS OVC030CB
      TEMPO 2119/2121 4SM -TSRA OVC015CB
     FM212100 31014KT P6SM VCSH OVC040
     FM212300 32011KT P6SM SCT150=

USA.gov is the U.S. government's official web portal to all federal, state and local government web resources and services.